createdAt,value
2023-04-18T00:02:17.719Z,99664.78
2023-04-18T00:04:46.506Z,99660.13
2023-04-18T00:07:16.472Z,99671.63
2023-04-18T00:09:45.109Z,99680.50
2023-04-18T00:12:13.335Z,99666.84
2023-04-18T00:14:41.410Z,99667.03
2023-04-18T00:17:10.847Z,99672.31
2023-04-18T00:19:43.445Z,99677.59
2023-04-18T00:22:11.826Z,99674.88
2023-04-18T00:24:39.902Z,99676.75
2023-04-18T00:27:08.042Z,99680.16
2023-04-18T00:29:36.122Z,99676.75
2023-04-18T00:32:04.228Z,99683.81
2023-04-18T00:34:32.261Z,99683.72
2023-04-18T00:37:01.878Z,99687.31
2023-04-18T00:39:29.910Z,99683.94
2023-04-18T00:41:57.969Z,99681.06
2023-04-18T00:44:26.120Z,99675.72
2023-04-18T00:46:54.124Z,99677.81
2023-04-18T00:49:22.988Z,99682.13
2023-04-18T00:51:51.629Z,99678.44
2023-04-18T00:54:21.827Z,99681.72
2023-04-18T00:56:50.145Z,99682.69
2023-04-18T00:59:18.151Z,99680.03
2023-04-18T01:01:46.303Z,99690.72
2023-04-18T01:04:14.890Z,99673.16
2023-04-18T01:06:45.661Z,99683.81
2023-04-18T01:09:14.819Z,99678.44
2023-04-18T01:11:44.206Z,99669.66
2023-04-18T01:14:12.515Z,99682.69
2023-04-18T01:16:40.810Z,99682.88
2023-04-18T01:19:08.798Z,99671.66
2023-04-18T01:21:37.503Z,99683.16
2023-04-18T01:24:12.740Z,99681.19
2023-04-18T01:26:41.440Z,99681.19
2023-04-18T01:29:09.512Z,99683.94
2023-04-18T01:31:38.677Z,99683.94
2023-04-18T01:34:07.823Z,99687.50
2023-04-18T01:36:36.962Z,99681.28
2023-04-18T01:39:05.195Z,99684.13
2023-04-18T01:41:34.648Z,99681.59
2023-04-18T01:44:02.805Z,99674.81
2023-04-18T01:46:30.955Z,99682.44
2023-04-18T01:49:00.907Z,99684.31
2023-04-18T01:51:29.081Z,99686.88
2023-04-18T01:53:57.126Z,99680.53
2023-04-18T01:56:25.194Z,99677.81
2023-04-18T01:58:54.546Z,99683.72
2023-04-18T02:01:22.717Z,99687.97
2023-04-18T02:03:51.142Z,99692.41
2023-04-18T02:06:19.422Z,99683.72
2023-04-18T02:08:47.451Z,99689.00
2023-04-18T02:11:15.504Z,99691.75
2023-04-18T02:13:43.558Z,99692.78
2023-04-18T02:16:14.379Z,99688.56
2023-04-18T02:18:44.431Z,99691.94
2023-04-18T02:21:12.559Z,99694.50
2023-04-18T02:23:40.681Z,99690.13
2023-04-18T02:26:08.803Z,99681.47
2023-04-18T02:28:39.165Z,99689.41
2023-04-18T02:31:07.500Z,99684.97
2023-04-18T02:33:37.156Z,99688.38
2023-04-18T02:36:06.179Z,99689.22
2023-04-18T02:38:34.554Z,99689.22
2023-04-18T02:41:02.683Z,99686.47
2023-04-18T02:43:30.775Z,99690.72
2023-04-18T02:45:58.893Z,99697.78
2023-04-18T02:48:27.539Z,99695.22
2023-04-18T02:51:03.509Z,99696.00
2023-04-18T02:53:31.626Z,99704.75
2023-04-18T02:55:59.977Z,99707.47
2023-04-18T02:58:28.221Z,99703.06
2023-04-18T03:00:57.308Z,99700.81
2023-04-18T03:03:26.084Z,99701.28
2023-04-18T03:05:54.234Z,99702.63
2023-04-18T03:08:23.706Z,99708.28
2023-04-18T03:10:51.743Z,99709.53
2023-04-18T03:13:19.801Z,99712.44
2023-04-18T03:15:48.296Z,99712.81
2023-04-18T03:18:16.612Z,99709.25
2023-04-18T03:20:44.917Z,99714.88
2023-04-18T03:23:12.970Z,99722.72
2023-04-18T03:25:42.535Z,99714.34
2023-04-18T03:28:10.702Z,99719.50
2023-04-18T03:30:38.872Z,99722.06
2023-04-18T03:33:07.137Z,99710.75
2023-04-18T03:35:35.599Z,99718.66
2023-04-18T03:38:03.784Z,99715.28
2023-04-18T03:40:31.974Z,99716.78
2023-04-18T03:43:01.784Z,99715.28
2023-04-18T03:45:30.131Z,99705.69
2023-04-18T03:47:58.346Z,99717.72
2023-04-18T03:50:26.694Z,99723.66
2023-04-18T03:52:54.691Z,99718.47
2023-04-18T03:55:22.866Z,99721.13
2023-04-18T03:57:50.991Z,99711.31
2023-04-18T04:00:20.828Z,99728.84
2023-04-18T04:02:49.222Z,99726.09
2023-04-18T04:05:17.697Z,99729.78
2023-04-18T04:07:45.796Z,99729.03
2023-04-18T04:10:13.898Z,99731.66
2023-04-18T04:12:42.079Z,99728.38
2023-04-18T04:15:11.697Z,99729.88
2023-04-18T04:17:41.167Z,99734.13
2023-04-18T04:20:10.318Z,99733.34
2023-04-18T04:22:38.301Z,99742.13
2023-04-18T04:25:07.727Z,99742.13
2023-04-18T04:27:36.973Z,99746.53
2023-04-18T04:30:05.756Z,99747.22
2023-04-18T04:32:34.210Z,99742.22
2023-04-18T04:35:04.539Z,99742.31
2023-04-18T04:37:33.652Z,99753.72
2023-04-18T04:40:02.871Z,99756.44
2023-04-18T04:42:31.506Z,99758.31
2023-04-18T04:44:59.659Z,99756.63
2023-04-18T04:47:27.789Z,99762.75
2023-04-18T04:49:56.207Z,99757.56
2023-04-18T04:52:25.641Z,99760.88
2023-04-18T04:54:53.686Z,99760.19
2023-04-18T04:57:21.813Z,99762.94
2023-04-18T04:59:49.891Z,99767.94
2023-04-18T05:02:17.962Z,99773.69
2023-04-18T05:04:46.036Z,99776.50
2023-04-18T05:07:14.177Z,99779.25
2023-04-18T05:09:45.399Z,99765.97
2023-04-18T05:12:13.514Z,99771.41
2023-04-18T05:14:41.693Z,99763.72
2023-04-18T05:17:09.786Z,99765.69
2023-04-18T05:19:37.855Z,99772.13
2023-04-18T05:22:05.947Z,99768.91
2023-04-18T05:24:34.051Z,99770.44
2023-04-18T05:27:03.575Z,99773.84
2023-04-18T05:29:31.661Z,99780.72
2023-04-18T05:32:03.526Z,99782.19
2023-04-18T05:34:31.955Z,99780.28
2023-04-18T05:37:00.479Z,99781.41
2023-04-18T05:39:47.052Z,99778.13
2023-04-18T05:42:16.577Z,99782.44
2023-04-18T05:44:44.776Z,99785.47
2023-04-18T05:47:13.000Z,99787.25
2023-04-18T05:49:41.088Z,99784.41
2023-04-18T05:52:09.191Z,99784.53
2023-04-18T05:54:37.230Z,99791.88
2023-04-18T05:57:05.380Z,99785.81
2023-04-18T05:59:34.844Z,99794.94
2023-04-18T06:02:02.989Z,99795.41
2023-04-18T06:04:31.444Z,99789.09
2023-04-18T06:06:59.643Z,99789.16
2023-04-18T06:09:27.804Z,99803.16
2023-04-18T06:11:55.899Z,99792.47
2023-04-18T06:14:23.951Z,99800.00
2023-04-18T06:16:53.628Z,99802.34
2023-04-18T06:19:22.067Z,99797.59
2023-04-18T06:21:50.849Z,99806.81
2023-04-18T06:24:19.013Z,99804.06
2023-04-18T06:26:47.432Z,99808.50
2023-04-18T06:29:19.586Z,99812.19
2023-04-18T06:31:52.937Z,99814.00
2023-04-18T06:34:22.429Z,99810.63
2023-04-18T06:36:50.694Z,99806.28
2023-04-18T06:39:18.816Z,99812.53
2023-04-18T06:41:46.866Z,99809.03
2023-04-18T06:44:14.954Z,99815.44
2023-04-18T06:46:43.297Z,99817.09
2023-04-18T06:49:11.542Z,99818.66
2023-04-18T06:51:40.951Z,99821.66
2023-04-18T06:54:09.127Z,99819.63
2023-04-18T06:56:37.166Z,99822.47
2023-04-18T06:59:05.278Z,99826.47
2023-04-18T07:01:34.252Z,99818.84
2023-04-18T07:04:02.628Z,99830.47
2023-04-18T07:06:31.225Z,99827.81
2023-04-18T07:09:01.653Z,99825.38
2023-04-18T07:11:29.870Z,99833.75
2023-04-18T07:13:57.877Z,99835.44
2023-04-18T07:16:25.973Z,99843.06
2023-04-18T07:18:54.106Z,99832.56
2023-04-18T07:21:22.100Z,99831.66
2023-04-18T07:23:50.185Z,99828.28
2023-04-18T07:26:19.594Z,99834.78
2023-04-18T07:28:47.650Z,99833.84
2023-04-18T07:31:16.793Z,99839.59
2023-04-18T07:33:45.050Z,99853.19
2023-04-18T07:36:13.301Z,99837.28
2023-04-18T07:38:41.353Z,99846.75
2023-04-18T07:41:09.473Z,99843.75
2023-04-18T07:43:40.560Z,99853.66
2023-04-18T07:46:08.795Z,99852.41
2023-04-18T07:48:36.919Z,99845.41
2023-04-18T07:51:05.410Z,99854.31
2023-04-18T07:53:33.659Z,99859.38
2023-04-18T07:56:01.810Z,99855.22
2023-04-18T07:58:29.983Z,99856.56
2023-04-18T08:00:59.557Z,99859.06
2023-04-18T08:03:28.219Z,99858.97
2023-04-18T08:05:56.825Z,99867.91
2023-04-18T08:08:24.922Z,99867.66
2023-04-18T08:10:53.024Z,99860.28
2023-04-18T08:13:21.150Z,99862.22
2023-04-18T08:15:49.676Z,99864.44
2023-04-18T08:18:19.987Z,99874.81
2023-04-18T08:20:48.303Z,99864.72
2023-04-18T08:23:16.384Z,99868.88
2023-04-18T08:25:44.521Z,99856.81
2023-04-18T08:28:12.746Z,99866.47
2023-04-18T08:30:41.097Z,99861.25
2023-04-18T08:33:09.309Z,99863.28
2023-04-18T08:35:38.907Z,99869.59
2023-04-18T08:38:06.911Z,99868.47
2023-04-18T08:40:35.183Z,99873.34
2023-04-18T08:43:05.124Z,99868.72
2023-04-18T08:45:33.567Z,99876.84
2023-04-18T08:48:03.773Z,99868.44
2023-04-18T08:50:32.451Z,99869.97
2023-04-18T08:53:02.406Z,99871.78
2023-04-18T08:55:30.528Z,99878.44
2023-04-18T08:57:58.623Z,99879.13
2023-04-18T09:00:27.638Z,99874.84
2023-04-18T09:02:57.343Z,99870.84
2023-04-18T09:05:27.716Z,99875.06
2023-04-18T09:07:57.321Z,99860.91
2023-04-18T09:10:32.901Z,99868.03
2023-04-18T09:13:03.383Z,99874.09
2023-04-18T09:15:32.690Z,99873.09
2023-04-18T09:18:03.109Z,99863.28
2023-04-18T09:20:38.359Z,99876.03
2023-04-18T09:23:10.799Z,99867.00
2023-04-18T09:25:47.034Z,99872.66
2023-04-18T09:28:27.151Z,99881.81
2023-04-18T09:30:56.287Z,99883.59
2023-04-18T09:33:29.318Z,99873.72
2023-04-18T09:36:01.356Z,99875.72
2023-04-18T09:38:41.188Z,99873.59
2023-04-18T09:41:12.091Z,99875.66
2023-04-18T09:43:40.642Z,99881.84
2023-04-18T09:46:09.477Z,99867.22
2023-04-18T09:48:37.632Z,99867.50
2023-04-18T09:51:08.719Z,99877.75
2023-04-18T09:53:40.721Z,99879.72
2023-04-18T09:56:15.169Z,99874.69
2023-04-18T09:58:45.201Z,99869.06
2023-04-18T10:01:13.544Z,99873.25
2023-04-18T10:03:46.564Z,99865.56
2023-04-18T10:06:18.093Z,99865.41
2023-04-18T10:08:47.114Z,99871.44
2023-04-18T10:11:18.674Z,99867.91
2023-04-18T10:13:49.632Z,99861.75
2023-04-18T10:16:18.341Z,99861.50
2023-04-18T10:18:46.518Z,99883.16
2023-04-18T10:21:15.503Z,99866.34
2023-04-18T10:23:43.566Z,99872.66
2023-04-18T10:26:12.292Z,99868.88
2023-04-18T10:28:58.040Z,99870.56
2023-04-18T10:31:27.894Z,99873.25
2023-04-18T10:34:04.701Z,99871.16
2023-04-18T10:36:34.380Z,99870.03
2023-04-18T10:39:04.389Z,99866.22
2023-04-18T10:41:33.660Z,99861.88
2023-04-18T10:44:23.838Z,99856.06
2023-04-18T10:47:32.129Z,99864.94
2023-04-18T10:50:09.078Z,99861.72
2023-04-18T10:52:37.124Z,99855.25
2023-04-18T10:55:25.888Z,99859.03
2023-04-18T10:57:56.506Z,99852.13
2023-04-18T11:00:27.738Z,99841.84
2023-04-18T11:02:58.038Z,99843.78
2023-04-18T11:05:27.945Z,99844.34
2023-04-18T11:07:56.560Z,99838.19
2023-04-18T11:10:26.617Z,99842.56
2023-04-18T11:12:56.100Z,99837.59
2023-04-18T11:15:25.863Z,99838.78
2023-04-18T11:18:00.591Z,99851.97
2023-04-18T11:20:29.219Z,99844.44
2023-04-18T11:22:59.032Z,99855.25
2023-04-18T11:25:29.150Z,99858.22
2023-04-18T11:28:00.413Z,99838.81
2023-04-18T11:30:29.293Z,99861.88
2023-04-18T11:32:59.084Z,99865.53
2023-04-18T11:35:27.608Z,99861.84
2023-04-18T11:37:56.217Z,99853.69
2023-04-18T11:40:24.567Z,99864.69
2023-04-18T11:42:56.030Z,99859.59
2023-04-18T11:45:24.125Z,99850.63
2023-04-18T11:47:58.686Z,99841.38
2023-04-18T11:50:27.964Z,99843.31
2023-04-18T11:52:56.614Z,99847.25
2023-04-18T11:55:27.310Z,99842.31
2023-04-18T11:57:56.904Z,99840.50
2023-04-18T12:00:33.695Z,99847.53
2023-04-18T12:03:05.462Z,99840.38
2023-04-18T12:05:36.682Z,99845.66
2023-04-18T12:08:10.550Z,99843.16
2023-04-18T12:10:39.888Z,99850.91
2023-04-18T12:13:09.290Z,99848.34
2023-04-18T12:15:40.548Z,99848.47
2023-04-18T12:18:10.233Z,99852.81
2023-04-18T12:20:39.608Z,99847.75
2023-04-18T12:23:08.073Z,99843.59
2023-04-18T12:25:36.588Z,99844.88
2023-04-18T12:28:16.884Z,99849.78
2023-04-18T12:30:45.017Z,99835.34
2023-04-18T12:33:14.564Z,99845.34
2023-04-18T12:35:42.683Z,99842.44
2023-04-18T12:38:12.149Z,99845.59
2023-04-18T12:40:40.842Z,99849.25
2023-04-18T12:43:09.141Z,99851.13
2023-04-18T12:45:37.226Z,99854.66
2023-04-18T12:48:05.569Z,99843.72
2023-04-18T12:50:35.480Z,99849.63
2023-04-18T12:53:03.836Z,99840.22
2023-04-18T12:55:32.069Z,99845.84
2023-04-18T12:58:00.843Z,99842.91
2023-04-18T13:00:31.395Z,99841.00
2023-04-18T13:03:00.050Z,99844.41
2023-04-18T13:05:32.948Z,99835.13
2023-04-18T13:10:34.329Z,99843.13
2023-04-18T13:13:02.489Z,99846.91
2023-04-18T13:15:30.783Z,99840.66
2023-04-18T13:18:04.849Z,99857.50
2023-04-18T13:20:33.959Z,99846.22
2023-04-18T13:23:03.989Z,99846.47
2023-04-18T13:25:32.161Z,99851.38
2023-04-18T13:28:01.160Z,99847.41
2023-04-18T13:30:29.692Z,99838.78
2023-04-18T13:32:58.060Z,99848.09
2023-04-18T13:35:26.206Z,99838.53
2023-04-18T13:37:54.371Z,99830.09
2023-04-18T13:40:24.403Z,99838.25
2023-04-18T13:42:52.996Z,99834.44
2023-04-18T13:45:22.760Z,99819.81
2023-04-18T13:47:51.035Z,99832.31
2023-04-18T13:50:19.330Z,99835.53
2023-04-18T13:52:49.373Z,99830.63
2023-04-18T13:55:18.884Z,99849.84
2023-04-18T13:57:48.393Z,99837.25
2023-04-18T14:00:17.656Z,99840.91
2023-04-18T14:02:46.051Z,99839.91
2023-04-18T14:05:14.521Z,99841.56
2023-04-18T14:07:43.045Z,99843.81
2023-04-18T14:10:12.162Z,99838.22
2023-04-18T14:12:40.266Z,99832.91
2023-04-18T14:15:11.321Z,99832.66
2023-04-18T14:17:39.867Z,99836.03
2023-04-18T14:20:09.329Z,99827.44
2023-04-18T14:22:37.570Z,99823.66
2023-04-18T14:25:06.599Z,99826.47
2023-04-18T14:27:34.787Z,99827.03
2023-04-18T14:30:02.836Z,99824.50
2023-04-18T14:32:32.370Z,99824.22
2023-04-18T14:35:00.402Z,99829.69
2023-04-18T14:37:28.533Z,99829.81
2023-04-18T14:39:56.776Z,99826.03
2023-04-18T14:42:24.860Z,99833.75
2023-04-18T14:44:52.967Z,99827.88
2023-04-18T14:47:21.984Z,99828.88
2023-04-18T14:49:51.791Z,99823.38
2023-04-18T14:52:19.834Z,99827.56
2023-04-18T14:54:47.924Z,99828.38
2023-04-18T14:57:16.385Z,99831.03
2023-04-18T14:59:44.774Z,99847.75
2023-04-18T15:02:13.148Z,99826.97
2023-04-18T15:04:41.575Z,99825.56
2023-04-18T15:07:11.235Z,99834.22
2023-04-18T15:09:39.787Z,99835.63
2023-04-18T15:12:08.991Z,99830.03
2023-04-18T15:14:37.077Z,99825.50
2023-04-18T15:17:07.157Z,99821.91
2023-04-18T15:19:35.285Z,99818.25
2023-04-18T15:22:03.552Z,99825.88
2023-04-18T15:24:33.385Z,99826.13
2023-04-18T15:27:02.090Z,99828.22
2023-04-18T15:29:30.136Z,99825.41
2023-04-18T15:31:58.289Z,99824.16
2023-04-18T15:34:26.928Z,99833.97
2023-04-18T15:36:55.073Z,99832.84
2023-04-18T15:39:24.138Z,99827.22
2023-04-18T15:41:55.745Z,99828.47
2023-04-18T15:44:24.185Z,99839.25
2023-04-18T15:46:52.411Z,99831.38
2023-04-18T15:49:20.627Z,99824.22
2023-04-18T15:51:49.033Z,99839.84
2023-04-18T15:54:20.244Z,99840.06
2023-04-18T15:56:48.407Z,99836.81
2023-04-18T15:59:17.891Z,99841.69
2023-04-18T16:01:46.390Z,99842.78
2023-04-18T16:04:14.885Z,99834.00
2023-04-18T16:06:43.669Z,99847.75
2023-04-18T16:09:19.619Z,99845.41
2023-04-18T16:11:48.275Z,99829.81
2023-04-18T16:14:18.101Z,99837.59
2023-04-18T16:16:51.090Z,99839.88
2023-04-18T16:19:21.513Z,99849.38
2023-04-18T16:21:49.912Z,99851.44
2023-04-18T16:24:18.067Z,99847.34
2023-04-18T16:26:46.505Z,99851.63
2023-04-18T16:29:15.000Z,99852.41
2023-04-18T16:31:45.271Z,99861.47
2023-04-18T16:34:16.977Z,99846.06
2023-04-18T16:36:45.098Z,99856.56
2023-04-18T16:39:13.487Z,99847.28
2023-04-18T16:41:53.766Z,99858.63
2023-04-18T16:44:30.371Z,99849.13
2023-04-18T16:47:15.584Z,99842.72
2023-04-18T16:49:58.275Z,99834.72
2023-04-18T16:52:32.071Z,99848.28
2023-04-18T16:55:02.038Z,99821.94
2023-04-18T16:57:35.710Z,99827.78
2023-04-18T17:00:07.224Z,99859.78
2023-04-18T17:02:39.977Z,99836.69
2023-04-18T17:05:09.965Z,99868.13
2023-04-18T17:07:41.829Z,99865.72
2023-04-18T17:10:12.864Z,99856.78
2023-04-18T17:12:46.170Z,99862.47
2023-04-18T17:15:29.031Z,99863.56
2023-04-18T17:18:01.618Z,99872.50
2023-04-18T17:23:15.625Z,99871.03
2023-04-18T17:25:43.918Z,99872.75
2023-04-18T17:28:12.186Z,99871.66
2023-04-18T17:30:42.749Z,99882.41
2023-04-18T17:33:13.094Z,99877.56
2023-04-18T17:35:42.545Z,99880.69
2023-04-18T17:38:11.849Z,99887.16
2023-04-18T17:40:41.111Z,99888.06
2023-04-18T17:43:09.442Z,99882.00
2023-04-18T17:45:39.497Z,99894.03
2023-04-18T17:48:08.619Z,99898.00
2023-04-18T17:50:39.174Z,99888.91
2023-04-18T17:53:07.568Z,99899.03
2023-04-18T17:55:36.666Z,99899.50
2023-04-18T17:58:05.659Z,99902.91
2023-04-18T18:00:34.409Z,99902.00
2023-04-18T18:03:03.235Z,99900.88
2023-04-18T18:05:32.035Z,99910.31
2023-04-18T18:08:03.322Z,99904.84
2023-04-18T18:10:33.027Z,99907.41
2023-04-18T18:13:02.631Z,99899.25
2023-04-18T18:15:31.595Z,99913.59
2023-04-18T18:18:01.332Z,99906.81
2023-04-18T18:20:33.578Z,99911.66
2023-04-18T18:23:05.173Z,99917.16
2023-04-18T18:25:33.805Z,99917.59
2023-04-18T18:28:04.629Z,99916.25
2023-04-18T18:30:33.951Z,99907.75
2023-04-18T18:33:04.413Z,99910.19
2023-04-18T18:35:34.230Z,99918.88
2023-04-18T18:38:05.384Z,99923.53
2023-04-18T18:40:35.718Z,99915.47
2023-04-18T18:43:04.905Z,99922.25
2023-04-18T18:45:34.589Z,99917.41
2023-04-18T18:48:04.442Z,99918.56
2023-04-18T18:50:33.565Z,99918.88
2023-04-18T18:53:03.899Z,99914.81
2023-04-18T18:55:32.591Z,99915.63
2023-04-18T18:58:00.755Z,99917.41
2023-04-18T19:00:29.956Z,99921.75
2023-04-18T19:02:59.343Z,99927.78
2023-04-18T19:05:29.170Z,99924.28
2023-04-18T19:07:58.209Z,99934.34
2023-04-18T19:10:30.434Z,99929.03
2023-04-18T19:13:00.842Z,99937.09
2023-04-18T19:15:31.079Z,99936.03
2023-04-18T19:18:02.103Z,99944.94
2023-04-18T19:20:31.091Z,99955.38
2023-04-18T19:23:00.859Z,99961.69
2023-04-18T19:25:30.926Z,99963.41
2023-04-18T19:28:00.874Z,99970.59
2023-04-18T19:30:31.204Z,99979.72
2023-04-18T19:33:01.026Z,99976.31
2023-04-18T19:35:29.726Z,99978.44
2023-04-18T19:38:02.329Z,99983.22
2023-04-18T19:40:33.069Z,99975.78
2023-04-18T19:43:02.184Z,99983.34
2023-04-18T19:45:32.551Z,99983.09
2023-04-18T19:48:04.570Z,99985.03
2023-04-18T19:50:35.491Z,99985.44
2023-04-18T19:53:05.320Z,99995.53
2023-04-18T19:55:37.504Z,99988.66
2023-04-18T19:58:07.074Z,99987.88
2023-04-18T20:00:36.498Z,99993.31
2023-04-18T20:03:06.921Z,99981.94
2023-04-18T20:05:35.821Z,99986.41
2023-04-18T20:08:06.445Z,99992.88
2023-04-18T20:10:40.222Z,99989.25
2023-04-18T20:13:09.580Z,99993.94
2023-04-18T20:15:39.339Z,99995.63
2023-04-18T20:18:08.999Z,99994.56
2023-04-18T20:20:37.975Z,100000.75
2023-04-18T20:23:07.152Z,100006.25
2023-04-18T20:25:39.186Z,99999.03
2023-04-18T20:28:09.416Z,99984.53
2023-04-18T20:30:39.513Z,99992.22
2023-04-18T20:33:08.867Z,99989.91
2023-04-18T20:35:37.071Z,99993.47
2023-04-18T20:38:07.284Z,99983.84
2023-04-18T20:40:40.979Z,99991.88
2023-04-18T20:43:11.242Z,99987.34
2023-04-18T20:45:43.483Z,99989.22
2023-04-18T20:48:13.079Z,99986.38
2023-04-18T20:50:42.251Z,99987.34
2023-04-18T20:53:10.824Z,99982.25
2023-04-18T20:55:40.819Z,99987.34
2023-04-18T20:58:09.547Z,99981.19
2023-04-18T21:00:38.275Z,99986.91
2023-04-18T21:03:06.710Z,99989.03
2023-04-18T21:05:34.862Z,99991.13
2023-04-18T21:08:04.180Z,99983.06
2023-04-18T21:10:32.403Z,100000.13
2023-04-18T21:13:02.180Z,99989.84
2023-04-18T21:15:30.379Z,99984.97
2023-04-18T21:18:00.761Z,99990.69
2023-04-18T21:20:29.037Z,99983.13
2023-04-18T21:22:57.086Z,99987.69
2023-04-18T21:25:25.356Z,99989.09
2023-04-18T21:27:53.478Z,99983.13
2023-04-18T21:30:23.325Z,99980.91
2023-04-18T21:32:51.696Z,99986.94
2023-04-18T21:35:20.847Z,99983.63
2023-04-18T21:37:50.776Z,99975.94
2023-04-18T21:40:19.063Z,99980.56
2023-04-18T21:42:48.660Z,99961.59
2023-04-18T21:45:18.275Z,99973.84
2023-04-18T21:47:47.853Z,99975.13
2023-04-18T21:50:16.095Z,99975.97
2023-04-18T21:52:44.171Z,99983.91
2023-04-18T21:55:12.260Z,99972.66
2023-04-18T21:57:40.373Z,99974.78
2023-04-18T22:00:10.714Z,99968.75
2023-04-18T22:02:39.013Z,99979.34
2023-04-18T22:05:09.300Z,99968.94
2023-04-18T22:07:50.098Z,99968.22
2023-04-18T22:10:23.082Z,99969.72
2023-04-18T22:12:54.127Z,99969.91
2023-04-18T22:15:22.422Z,99960.81
2023-04-18T22:17:50.597Z,99973.09
2023-04-18T22:20:20.231Z,99964.69
2023-04-18T22:22:48.370Z,99961.31
2023-04-18T22:25:16.592Z,99969.13
2023-04-18T22:27:46.703Z,99967.25
2023-04-18T22:30:15.979Z,99963.84
2023-04-18T22:32:44.189Z,99958.66
2023-04-18T22:35:12.350Z,99960.47
2023-04-18T22:37:41.843Z,99951.75
2023-04-18T22:40:10.771Z,99958.97
2023-04-18T22:42:38.972Z,99951.03
2023-04-18T22:45:08.216Z,99946.69
2023-04-18T22:47:36.733Z,99944.78
2023-04-18T22:50:05.169Z,99946.88
2023-04-18T22:52:33.469Z,99946.03
2023-04-18T22:55:04.271Z,99935.47
2023-04-18T22:57:32.383Z,99929.09
2023-04-18T23:00:00.551Z,99921.09
2023-04-18T23:02:29.035Z,99925.31
2023-04-18T23:04:59.127Z,99918.44
2023-04-18T23:07:27.308Z,99917.66
2023-04-18T23:09:55.612Z,99920.44
2023-04-18T23:12:25.278Z,99914.94
2023-04-18T23:14:53.287Z,99910.50
2023-04-18T23:17:21.957Z,99909.66
2023-04-18T23:19:50.018Z,99910.50
2023-04-18T23:22:18.116Z,99912.84
2023-04-18T23:24:46.269Z,99903.09
2023-04-18T23:27:14.333Z,99904.72
2023-04-18T23:29:43.826Z,99902.69
2023-04-18T23:32:11.890Z,99896.78
2023-04-18T23:34:39.993Z,99893.69
2023-04-18T23:37:09.087Z,99887.88
2023-04-18T23:39:37.130Z,99887.88
2023-04-18T23:42:11.282Z,99883.22
2023-04-18T23:44:39.330Z,99873.50
2023-04-18T23:47:08.838Z,99879.75
2023-04-18T23:49:37.023Z,99869.16
2023-04-18T23:52:06.256Z,99877.28
2023-04-18T23:54:34.439Z,99861.63
2023-04-18T23:57:02.511Z,99866.91
2023-04-18T23:59:30.592Z,99857.16
